Terminal Aerodrome Forecast
Issued by NWS Mt. Holly, NJ

Current Version | Previous Version | Text Only | Print | Product List | Glossary On
Versions: 1 2 3 4 5 6 7 8 9 10 11 12 13 14 15 16 17
000
FTUS41 KPHI 210500
TAFRDG
TAF
KRDG 210522Z 2106/2206 20005KT P6SM -SHRA OVC060
      TEMPO 2106/2108 3SM SHRA BR OVC035
     FM211300 30005KT P6SM VCSH BKN080
     FM211900 33005KT P6SM -SHRA BKN050
     FM220000 36003KT 6SM -SHRA OVC040=

USA.gov is the U.S. government's official web portal to all federal, state and local government web resources and services.